Time;durP1;ratioP1;P1;durP2;ratioP2;P2;SDS_P1;SDS_P2;PMS_P1;PMS_P2;Temp;Humidity;BMP_temperature;BMP_pressure;BME280_temperature;BME280_humidity;BME280_pressure;Samples;Min_cycle;Max_cycle;Signal;HPM_P1;HPM_P2
2022/12/12 00:01:55;;;;;;;;;;;;;;;;;;10496599;28;19924;-60
2022/12/12 00:06:57;;;;;;;;;;;;;;;;;;10505399;28;20394;-60
2022/12/12 00:11:59;;;;;;;;;;;;;;;;;;10505411;28;19974;-60
2022/12/12 00:17:01;;;;;;;;;;;;;;;;;;10506034;28;19932;-60
2022/12/12 00:22:03;;;;;;;;;;;;;;;;;;10503259;28;19925;-60
2022/12/12 00:27:05;;;;;;;;;;;;;;;;;;10505116;28;19924;-60
2022/12/12 00:32:07;;;;;;;;;;;;;;;;;;10503202;28;20035;-61
2022/12/12 00:37:09;;;;;;;;;;;;;;;;;;10504636;28;20331;-60
2022/12/12 00:42:11;;;;;;;;;;;;;;;;;;10503418;28;19978;-60
2022/12/12 00:47:13;;;;;;;;;;;;;;;;;;10504265;28;19950;-61
2022/12/12 00:52:15;;;;;;;;;;;;;;;;;;10503773;28;19931;-60
2022/12/12 00:57:17;;;;;;;;;;;;;;;;;;10505088;28;19967;-61
2022/12/12 01:02:19;;;;;;;;;;;;;;;;;;10503679;28;19931;-60
2022/12/12 01:07:27;;;;;;;;;;;;;;;;;;10503329;28;19924;-60
2022/12/12 01:12:29;;;;;;;;;;;;;;;;;;10503049;28;19924;-60
2022/12/12 01:17:36;;;;;;;;;;;;;;;;;;10504160;28;19925;-61
2022/12/12 01:22:38;;;;;;;;;;;;;;;;;;10502781;28;20028;-60
2022/12/12 01:27:40;;;;;;;;;;;;;;;;;;10502907;28;19932;-60
2022/12/12 01:32:42;;;;;;;;;;;;;;;;;;10501628;28;19994;-60
2022/12/12 01:37:44;;;;;;;;;;;;;;;;;;10503073;28;19929;-61
2022/12/12 01:42:46;;;;;;;;;;;;;;;;;;10502111;28;19924;-60
2022/12/12 01:47:48;;;;;;;;;;;;;;;;;;10501975;28;20345;-61
2022/12/12 01:52:51;;;;;;;;;;;;;;;;;;10500856;28;20402;-60
2022/12/12 01:57:53;;;;;;;;;;;;;;;;;;10502218;28;19970;-60
2022/12/12 02:02:55;;;;;;;;;;;;;;;;;;10501086;28;19925;-60
2022/12/12 02:07:57;;;;;;;;;;;;;;;;;;10501011;28;20403;-61
2022/12/12 02:12:59;;;;;;;;;;;;;;;;;;10499970;28;20371;-60
2022/12/12 02:18:01;;;;;;;;;;;;;;;;;;10507810;22;19940;-67
2022/12/12 02:23:04;;;;;;;;;;;;;;;;;;10499563;28;19931;-67
2022/12/12 02:28:07;;;;;;;;;;;;;;;;;;10499680;28;19928;-67
2022/12/12 02:33:09;;;;;;;;;;;;;;;;;;10500382;28;19966;-68
2022/12/12 02:38:11;;;;;;;;;;;;;;;;;;10499867;28;19925;-67
2022/12/12 02:43:13;;;;;;;;;;;;;;;;;;10498707;28;20436;-67
2022/12/12 02:48:15;;;;;;;;;;;;;;;;;;10499044;28;19954;-68
2022/12/12 02:53:17;;;;;;;;;;;;;;;;;;10500426;28;19932;-68
2022/12/12 02:58:19;;;;;;;;;;;;;;;;;;10497301;28;20367;-68
2022/12/12 03:08:42;;;;;;;;;;;;;;;;;;10498601;28;19958;-68
2022/12/12 03:13:44;;;;;;;;;;;;;;;;;;10498764;28;20299;-68
2022/12/12 03:18:46;;;;;;;;;;;;;;;;;;10497344;28;19924;-68
2022/12/12 03:23:48;;;;;;;;;;;;;;;;;;10499131;28;19925;-68
2022/12/12 03:28:50;;;;;;;;;;;;;;;;;;10498107;28;20002;-68
2022/12/12 03:33:52;;;;;;;;;;;;;;;;;;10498796;28;20409;-68
2022/12/12 03:38:56;;;;;;;;;;;;;;;;;;10496139;28;19925;-68
2022/12/12 03:43:58;;;;;;;;;;;;;;;;;;10498034;28;20041;-68
2022/12/12 03:49:00;;;;;;;;;;;;;;;;;;10497739;28;19931;-68
2022/12/12 03:54:02;;;;;;;;;;;;;;;;;;10497881;28;20302;-68
2022/12/12 03:59:04;;;;;;;;;;;;;;;;;;10496356;28;20379;-68
2022/12/12 04:04:06;;;;;;;;;;;;;;;;;;10479931;28;19924;-68
2022/12/12 04:14:29;;;;;;;;;;;;;;;;;;10498175;28;19924;-68
2022/12/12 04:24:52;;;;;;;;;;;;;;;;;;10497293;28;20405;-68
2022/12/12 04:29:54;;;;;;;;;;;;;;;;;;10479320;28;19932;-67
2022/12/12 04:34:56;;;;;;;;;;;;;;;;;;10497624;28;19924;-68
2022/12/12 04:39:58;;;;;;;;;;;;;;;;;;10494432;28;19925;-67
2022/12/12 04:45:00;;;;;;;;;;;;;;;;;;10497447;28;19928;-67
2022/12/12 04:50:02;;;;;;;;;;;;;;;;;;10499236;28;19990;-67
2022/12/12 04:55:04;;;;;;;;;;;;;;;;;;10503735;28;19980;-67
2022/12/12 05:00:06;;;;;;;;;;;;;;;;;;10502257;28;19929;-67
2022/12/12 05:05:08;;;;;;;;;;;;;;;;;;10504436;28;19925;-67
2022/12/12 05:10:10;;;;;;;;;;;;;;;;;;10502924;28;20350;-67
2022/12/12 05:15:12;;;;;;;;;;;;;;;;;;10504516;28;19928;-68
2022/12/12 05:20:15;;;;;;;;;;;;;;;;;;10501688;28;20023;-68
2022/12/12 05:25:17;;;;;;;;;;;;;;;;;;10503529;28;19934;-68
2022/12/12 05:30:19;;;;;;;;;;;;;;;;;;10502180;28;19924;-68
2022/12/12 05:35:21;;;;;;;;;;;;;;;;;;10502050;28;19970;-68
2022/12/12 05:40:23;;;;;;;;;;;;;;;;;;10501402;28;19928;-69
2022/12/12 05:45:25;;;;;;;;;;;;;;;;;;10501924;28;19924;-68
2022/12/12 05:50:27;;;;;;;;;;;;;;;;;;10500928;28;19932;-68
2022/12/12 05:55:29;;;;;;;;;;;;;;;;;;10502424;28;19924;-69
2022/12/12 06:00:31;;;;;;;;;;;;;;;;;;10499287;28;19924;-69
2022/12/12 06:05:34;;;;;;;;;;;;;;;;;;10501955;28;19925;-69
2022/12/12 06:10:36;;;;;;;;;;;;;;;;;;10500173;28;20302;-69
2022/12/12 06:15:38;;;;;;;;;;;;;;;;;;10501581;28;19924;-69
2022/12/12 06:20:40;;;;;;;;;;;;;;;;;;10499621;28;20333;-69
2022/12/12 06:25:42;;;;;;;;;;;;;;;;;;10501098;28;19929;-69
2022/12/12 06:30:44;;;;;;;;;;;;;;;;;;10498624;28;20441;-70
2022/12/12 06:35:46;;;;;;;;;;;;;;;;;;10500302;28;20027;-70
2022/12/12 06:40:48;;;;;;;;;;;;;;;;;;10499799;28;19954;-70
2022/12/12 06:45:50;;;;;;;;;;;;;;;;;;10498973;28;19929;-70
2022/12/12 06:50:53;;;;;;;;;;;;;;;;;;10499222;28;20011;-70
2022/12/12 06:55:55;;;;;;;;;;;;;;;;;;10499274;28;19924;-69
2022/12/12 07:00:57;;;;;;;;;;;;;;;;;;10498545;28;19928;-70
2022/12/12 07:05:59;;;;;;;;;;;;;;;;;;10499612;28;19974;-71
2022/12/12 07:11:01;;;;;;;;;;;;;;;;;;10497976;28;19924;-70
2022/12/12 07:16:03;;;;;;;;;;;;;;;;;;10498549;28;20375;-70
2022/12/12 07:21:05;;;;;;;;;;;;;;;;;;10497600;28;19931;-70
2022/12/12 07:26:08;;;;;;;;;;;;;;;;;;10499092;28;19931;-70
2022/12/12 07:31:10;;;;;;;;;;;;;;;;;;10498453;28;19932;-70
2022/12/12 07:36:12;;;;;;;;;;;;;;;;;;10498965;28;20019;-71
2022/12/12 07:41:14;;;;;;;;;;;;;;;;;;10497105;28;19977;-70
2022/12/12 07:46:16;;;;;;;;;;;;;;;;;;10497506;28;19925;-71
2022/12/12 07:51:18;;;;;;;;;;;;;;;;;;10497344;28;19970;-70
2022/12/12 07:56:20;;;;;;;;;;;;;;;;;;10498112;28;19932;-71
2022/12/12 08:01:22;;;;;;;;;;;;;;;;;;10497686;28;20275;-70
2022/12/12 08:06:25;;;;;;;;;;;;;;;;;;10495187;28;20397;-70
2022/12/12 08:11:27;;;;;;;;;;;;;;;;;;10491418;28;20326;-71
2022/12/12 08:16:29;;;;;;;;;;;;;;;;;;10517623;28;19924;-71
2022/12/12 08:21:31;;;;;;;;;;;;;;;;;;10531526;28;19955;-71
2022/12/12 08:26:33;;;;;;;;;;;;;;;;;;10503016;28;19925;-70
2022/12/12 08:31:35;;;;;;;;;;;;;;;;;;10505655;28;19924;-72
2022/12/12 08:36:38;;;;;;;;;;;;;;;;;;10530942;28;20006;-71
2022/12/12 08:41:40;;;;;;;;;;;;;;;;;;10539898;28;19924;-71
2022/12/12 08:46:42;;;;;;;;;;;;;;;;;;10497720;28;19929;-71
2022/12/12 08:51:44;;;;;;;;;;;;;;;;;;10483742;28;19932;-71
2022/12/12 08:56:47;;;;;;;;;;;;;;;;;;10492741;28;20007;-71
2022/12/12 09:01:49;;;;;;;;;;;;;;;;;;10484872;28;19928;-71
2022/12/12 09:06:51;;;;;;;;;;;;;;;;;;10475725;28;19928;-70
2022/12/12 09:11:53;;;;;;;;;;;;;;;;;;10537445;28;20391;-71
2022/12/12 09:16:55;;;;;;;;;;;;;;;;;;10478525;28;19925;-71
2022/12/12 09:21:57;;;;;;;;;;;;;;;;;;10496135;28;19932;-71
2022/12/12 09:26:59;;;;;;;;;;;;;;;;;;10501567;28;19924;-71
2022/12/12 09:32:05;;;;;;;;;;;;;;;;;;10502199;28;19978;-71
2022/12/12 09:37:07;;;;;;;;;;;;;;;;;;10500271;28;20371;-71
2022/12/12 09:42:09;;;;;;;;;;;;;;;;;;10503026;28;19928;-71
2022/12/12 09:47:11;;;;;;;;;;;;;;;;;;10502745;28;19931;-71
2022/12/12 09:52:13;;;;;;;;;;;;;;;;;;10502613;28;19936;-70
2022/12/12 09:57:15;;;;;;;;;;;;;;;;;;10502411;28;19974;-71
2022/12/12 10:02:17;;;;;;;;;;;;;;;;;;10501537;28;20287;-70
2022/12/12 10:07:19;;;;;;;;;;;;;;;;;;10501325;28;20368;-70
2022/12/12 10:12:22;;;;;;;;;;;;;;;;;;10501793;28;19928;-70
2022/12/12 10:17:24;;;;;;;;;;;;;;;;;;10500926;28;19983;-70
2022/12/12 10:22:26;;;;;;;;;;;;;;;;;;10501113;28;19932;-70
2022/12/12 10:27:28;;;;;;;;;;;;;;;;;;10501072;28;19925;-70
2022/12/12 10:32:30;;;;;;;;;;;;;;;;;;10500933;28;19928;-70
2022/12/12 10:37:34;;;;;;;;;;;;;;;;;;10500787;28;19970;-70
2022/12/12 10:42:36;;;;;;;;;;;;;;;;;;10500434;28;19924;-70
2022/12/12 10:47:38;;;;;;;;;;;;;;;;;;10499790;28;19954;-70
2022/12/12 10:52:40;;;;;;;;;;;;;;;;;;10499495;28;20436;-70
2022/12/12 10:57:42;;;;;;;;;;;;;;;;;;10499349;28;20360;-71
2022/12/12 11:02:44;;;;;;;;;;;;;;;;;;10499809;28;19936;-70
2022/12/12 11:07:46;;;;;;;;;;;;;;;;;;10499811;28;19928;-70
2022/12/12 11:12:48;;;;;;;;;;;;;;;;;;10499544;28;20002;-70
2022/12/12 11:17:50;;;;;;;;;;;;;;;;;;10499267;28;19928;-70
2022/12/12 11:22:53;;;;;;;;;;;;;;;;;;10498656;28;19925;-71
2022/12/12 11:27:55;;;;;;;;;;;;;;;;;;10499011;28;19924;-70
2022/12/12 11:32:57;;;;;;;;;;;;;;;;;;10498989;28;19924;-69
2022/12/12 11:37:59;;;;;;;;;;;;;;;;;;10498375;28;19925;-70
2022/12/12 11:43:01;;;;;;;;;;;;;;;;;;10498283;28;20329;-70
2022/12/12 11:48:03;;;;;;;;;;;;;;;;;;10498770;28;19928;-70
2022/12/12 11:53:05;;;;;;;;;;;;;;;;;;10498697;28;19931;-70
2022/12/12 11:58:07;;;;;;;;;;;;;;;;;;10498581;28;19986;-70
2022/12/12 12:03:09;;;;;;;;;;;;;;;;;;10506804;28;19932;-70
2022/12/12 12:08:11;;;;;;;;;;;;;;;;;;10506837;28;19924;-70
2022/12/12 12:13:14;;;;;;;;;;;;;;;;;;10504503;28;20027;-70
2022/12/12 12:18:16;;;;;;;;;;;;;;;;;;10487188;28;19978;-69
2022/12/12 12:23:18;;;;;;;;;;;;;;;;;;10503857;28;19928;-69
2022/12/12 12:28:20;;;;;;;;;;;;;;;;;;10505805;28;19957;-69
2022/12/12 12:33:23;;;;;;;;;;;;;;;;;;10503990;28;19929;-69
2022/12/12 12:38:25;;;;;;;;;;;;;;;;;;10492682;28;19970;-69
2022/12/12 12:43:27;;;;;;;;;;;;;;;;;;10463843;28;19925;-70
2022/12/12 12:48:29;;;;;;;;;;;;;;;;;;10463594;28;19929;-69
2022/12/12 12:53:31;;;;;;;;;;;;;;;;;;10496970;28;19931;-69
2022/12/12 12:58:34;;;;;;;;;;;;;;;;;;10504736;28;19929;-69
2022/12/12 13:03:36;;;;;;;;;;;;;;;;;;10504535;28;19970;-70
2022/12/12 13:08:38;;;;;;;;;;;;;;;;;;10503663;28;20371;-70
2022/12/12 13:13:41;;;;;;;;;;;;;;;;;;10503092;28;19990;-70
2022/12/12 13:18:43;;;;;;;;;;;;;;;;;;10503683;28;19974;-70
2022/12/12 13:23:46;;;;;;;;;;;;;;;;;;10486324;28;19947;-70
2022/12/12 13:28:49;;;;;;;;;;;;;;;;;;10503541;28;19928;-70
2022/12/12 13:33:51;;;;;;;;;;;;;;;;;;10502845;28;19925;-70
2022/12/12 13:38:53;;;;;;;;;;;;;;;;;;10503217;28;19925;-70
2022/12/12 13:43:55;;;;;;;;;;;;;;;;;;10502982;28;19924;-71
2022/12/12 13:48:57;;;;;;;;;;;;;;;;;;10502916;28;19925;-70
2022/12/12 13:53:59;;;;;;;;;;;;;;;;;;10502680;28;19970;-70
2022/12/12 13:59:01;;;;;;;;;;;;;;;;;;10502322;28;19924;-70
2022/12/12 14:04:04;;;;;;;;;;;;;;;;;;10501570;28;19928;-71
2022/12/12 14:09:06;;;;;;;;;;;;;;;;;;10502325;28;19924;-70
2022/12/12 14:14:08;;;;;;;;;;;;;;;;;;10501115;28;20257;-70
2022/12/12 14:19:10;;;;;;;;;;;;;;;;;;10501461;28;19948;-71
2022/12/12 14:24:12;;;;;;;;;;;;;;;;;;10500512;28;19939;-70
2022/12/12 14:29:14;;;;;;;;;;;;;;;;;;10501109;28;19925;-71
2022/12/12 14:34:16;;;;;;;;;;;;;;;;;;10508509;22;20022;-70
2022/12/12 14:39:19;;;;;;;;;;;;;;;;;;10500810;28;19925;-71
2022/12/12 14:44:21;;;;;;;;;;;;;;;;;;10501130;28;19932;-70
2022/12/12 14:49:39;;;;;;;;;;;;;;;;;;10500310;28;19924;-70
2022/12/12 14:54:41;;;;;;;;;;;;;;;;;;10499547;28;19924;-71
2022/12/12 14:59:43;;;;;;;;;;;;;;;;;;10500012;28;19925;-70
2022/12/12 15:04:45;;;;;;;;;;;;;;;;;;10499734;28;19935;-70
2022/12/12 15:09:47;;;;;;;;;;;;;;;;;;10499606;28;19924;-70
2022/12/12 15:14:50;;;;;;;;;;;;;;;;;;10498928;28;20460;-71
2022/12/12 15:19:52;;;;;;;;;;;;;;;;;;10498806;28;20363;-71
2022/12/12 15:24:54;;;;;;;;;;;;;;;;;;10459493;28;19933;-71
2022/12/12 15:29:57;;;;;;;;;;;;;;;;;;10456933;28;20429;-71
2022/12/12 15:34:59;;;;;;;;;;;;;;;;;;10456973;28;19925;-71
2022/12/12 15:40:01;;;;;;;;;;;;;;;;;;10456882;28;20375;-71
2022/12/12 15:45:03;;;;;;;;;;;;;;;;;;10457419;28;19925;-71
2022/12/12 15:50:05;;;;;;;;;;;;;;;;;;10457617;28;20054;-71
2022/12/12 15:55:08;;;;;;;;;;;;;;;;;;10456608;28;20279;-71
2022/12/12 16:00:10;;;;;;;;;;;;;;;;;;10457094;28;19970;-71
2022/12/12 16:05:13;;;;;;;;;;;;;;;;;;10438904;28;19971;-71
2022/12/12 16:10:15;;;;;;;;;;;;;;;;;;10466311;28;20331;-72
2022/12/12 16:15:17;;;;;;;;;;;;;;;;;;10497299;28;19925;-71
2022/12/12 16:20:19;;;;;;;;;;;;;;;;;;10498176;28;19931;-72
2022/12/12 16:25:25;;;;;;;;;;;;;;;;;;10497375;28;19932;-71
2022/12/12 16:30:27;;;;;;;;;;;;;;;;;;10497419;28;19925;-71
2022/12/12 16:35:29;;;;;;;;;;;;;;;;;;10497374;28;19925;-71
2022/12/12 16:40:31;;;;;;;;;;;;;;;;;;10496461;28;20376;-71
2022/12/12 16:45:33;;;;;;;;;;;;;;;;;;10480764;28;19929;-72
2022/12/12 16:50:35;;;;;;;;;;;;;;;;;;10505196;28;20019;-71
2022/12/12 16:55:37;;;;;;;;;;;;;;;;;;10505040;28;19924;-71
2022/12/12 17:00:40;;;;;;;;;;;;;;;;;;10503234;28;20333;-71
2022/12/12 17:05:42;;;;;;;;;;;;;;;;;;10504551;28;19931;-72
2022/12/12 17:10:44;;;;;;;;;;;;;;;;;;10502684;28;19924;-71
2022/12/12 17:15:46;;;;;;;;;;;;;;;;;;10503571;28;19970;-72
2022/12/12 17:20:48;;;;;;;;;;;;;;;;;;10502871;28;20391;-71
2022/12/12 17:25:50;;;;;;;;;;;;;;;;;;10503650;28;19928;-71
2022/12/12 17:30:56;;;;;;;;;;;;;;;;;;10501816;28;19954;-71
2022/12/12 17:35:59;;;;;;;;;;;;;;;;;;10500407;28;19978;-71
2022/12/12 17:41:01;;;;;;;;;;;;;;;;;;10499947;28;20367;-72
2022/12/12 17:46:03;;;;;;;;;;;;;;;;;;10502532;28;19932;-72
2022/12/12 17:51:05;;;;;;;;;;;;;;;;;;10501823;28;19930;-72
2022/12/12 17:56:07;;;;;;;;;;;;;;;;;;10515187;28;19924;-71
2022/12/12 18:01:09;;;;;;;;;;;;;;;;;;10518955;28;20376;-71
2022/12/12 18:06:11;;;;;;;;;;;;;;;;;;10483032;28;19932;-72
2022/12/12 18:11:13;;;;;;;;;;;;;;;;;;10483603;28;19924;-72
2022/12/12 18:16:15;;;;;;;;;;;;;;;;;;10499583;28;20344;-72
2022/12/12 18:21:18;;;;;;;;;;;;;;;;;;10473358;28;20414;-71
2022/12/12 18:26:40;;;;;;;;;;;;;;;;;;10499688;28;20019;-72
2022/12/12 18:31:42;;;;;;;;;;;;;;;;;;10505281;28;19925;-71
2022/12/12 18:36:44;;;;;;;;;;;;;;;;;;10500533;28;19931;-72
2022/12/12 18:41:46;;;;;;;;;;;;;;;;;;10499937;28;20366;-71
2022/12/12 18:46:49;;;;;;;;;;;;;;;;;;10499802;28;19924;-72
2022/12/12 18:51:52;;;;;;;;;;;;;;;;;;10498400;28;19925;-71
2022/12/12 18:56:54;;;;;;;;;;;;;;;;;;10500078;28;19970;-71
2022/12/12 19:01:56;;;;;;;;;;;;;;;;;;10500003;28;19936;-71
2022/12/12 19:06:58;;;;;;;;;;;;;;;;;;10498524;28;19924;-72
2022/12/12 19:12:00;;;;;;;;;;;;;;;;;;10498466;28;19925;-71
2022/12/12 19:17:03;;;;;;;;;;;;;;;;;;10500013;28;19952;-72
2022/12/12 19:22:05;;;;;;;;;;;;;;;;;;10498479;28;19928;-71
2022/12/12 19:27:26;;;;;;;;;;;;;;;;;;10498153;28;19974;-71
2022/12/12 19:32:28;;;;;;;;;;;;;;;;;;10469901;28;20400;-72
2022/12/12 19:37:30;;;;;;;;;;;;;;;;;;10456841;28;19928;-71
2022/12/12 19:42:32;;;;;;;;;;;;;;;;;;10498811;28;19970;-72
2022/12/12 19:47:34;;;;;;;;;;;;;;;;;;10498801;28;19932;-71
2022/12/12 19:52:36;;;;;;;;;;;;;;;;;;10497692;28;20305;-71
2022/12/12 19:57:38;;;;;;;;;;;;;;;;;;10498005;28;19924;-72
2022/12/12 20:02:41;;;;;;;;;;;;;;;;;;10479698;28;19924;-71
2022/12/12 20:07:43;;;;;;;;;;;;;;;;;;10496699;28;19924;-71
2022/12/12 20:12:45;;;;;;;;;;;;;;;;;;10497364;28;19924;-72
2022/12/12 20:18:00;;;;;;;;;;;;;;;;;;10498336;28;20015;-72
2022/12/12 20:23:03;;;;;;;;;;;;;;;;;;10503412;28;19932;-72
2022/12/12 20:28:05;;;;;;;;;;;;;;;;;;10504532;28;20386;-72
2022/12/12 20:33:07;;;;;;;;;;;;;;;;;;10525989;28;19928;-71
2022/12/12 20:38:09;;;;;;;;;;;;;;;;;;10505379;28;19925;-71
2022/12/12 20:43:12;;;;;;;;;;;;;;;;;;10505348;28;20309;-71
2022/12/12 20:48:14;;;;;;;;;;;;;;;;;;10504616;28;19925;-72
2022/12/12 20:53:16;;;;;;;;;;;;;;;;;;10503695;28;20376;-71
2022/12/12 20:58:18;;;;;;;;;;;;;;;;;;10504251;28;20394;-72
2022/12/12 21:03:20;;;;;;;;;;;;;;;;;;10503661;28;19925;-72
2022/12/12 21:08:22;;;;;;;;;;;;;;;;;;10486390;28;19924;-71
2022/12/12 21:13:24;;;;;;;;;;;;;;;;;;10504628;28;19979;-72
2022/12/12 21:18:26;;;;;;;;;;;;;;;;;;10504496;28;19982;-71
2022/12/12 21:23:29;;;;;;;;;;;;;;;;;;10503031;28;19925;-71
2022/12/12 21:28:31;;;;;;;;;;;;;;;;;;10502052;28;20417;-72
2022/12/12 21:33:34;;;;;;;;;;;;;;;;;;10503031;28;19924;-71
2022/12/12 21:38:36;;;;;;;;;;;;;;;;;;10502700;28;20345;-72
2022/12/12 21:43:38;;;;;;;;;;;;;;;;;;10501323;28;19930;-72
2022/12/12 21:48:40;;;;;;;;;;;;;;;;;;10502170;28;20429;-71
2022/12/12 21:53:42;;;;;;;;;;;;;;;;;;10501416;28;19925;-72
2022/12/12 21:58:45;;;;;;;;;;;;;;;;;;10484053;28;19925;-71
2022/12/12 22:03:47;;;;;;;;;;;;;;;;;;10502064;28;19928;-72
2022/12/12 22:08:49;;;;;;;;;;;;;;;;;;10501958;28;19925;-71
2022/12/12 22:13:51;;;;;;;;;;;;;;;;;;10499837;28;19931;-71
2022/12/12 22:18:53;;;;;;;;;;;;;;;;;;10501699;28;19925;-72
2022/12/12 22:23:55;;;;;;;;;;;;;;;;;;10499949;28;19924;-72
2022/12/12 22:28:58;;;;;;;;;;;;;;;;;;10501127;28;19925;-71
2022/12/12 22:34:00;;;;;;;;;;;;;;;;;;10500279;28;19924;-71
2022/12/12 22:39:02;;;;;;;;;;;;;;;;;;10499864;28;19970;-71
2022/12/12 22:44:06;;;;;;;;;;;;;;;;;;10498671;28;20385;-72
2022/12/12 22:49:08;;;;;;;;;;;;;;;;;;10500907;28;20030;-71
2022/12/12 22:54:10;;;;;;;;;;;;;;;;;;10499493;28;19933;-72
2022/12/12 22:59:12;;;;;;;;;;;;;;;;;;10500120;28;19924;-72
2022/12/12 23:04:14;;;;;;;;;;;;;;;;;;10500000;28;19925;-71
2022/12/12 23:09:16;;;;;;;;;;;;;;;;;;10498201;28;19997;-71
2022/12/12 23:14:20;;;;;;;;;;;;;;;;;;10499019;28;20368;-71
2022/12/12 23:19:24;;;;;;;;;;;;;;;;;;10498924;28;20007;-71
2022/12/12 23:24:26;;;;;;;;;;;;;;;;;;10499288;28;20387;-72
2022/12/12 23:29:28;;;;;;;;;;;;;;;;;;10498342;28;19985;-71
2022/12/12 23:34:30;;;;;;;;;;;;;;;;;;10498704;28;19925;-72
2022/12/12 23:39:32;;;;;;;;;;;;;;;;;;10499018;28;19977;-71
2022/12/12 23:44:34;;;;;;;;;;;;;;;;;;10497395;28;20371;-71
2022/12/12 23:49:37;;;;;;;;;;;;;;;;;;10497233;28;20437;-72
2022/12/12 23:54:39;;;;;;;;;;;;;;;;;;10501163;28;19924;-71
2022/12/12 23:59:41;;;;;;;;;;;;;;;;;;10507339;28;19925;-71
